createdAt,value
2018-09-25T00:01:25.096Z,102477.00
2018-09-25T00:03:59.446Z,102471.00
2018-09-25T00:06:33.614Z,102479.00
2018-09-25T00:09:07.884Z,102488.00
2018-09-25T00:11:42.240Z,102488.00
2018-09-25T00:14:16.461Z,102488.00
2018-09-25T00:16:50.672Z,102496.00
2018-09-25T00:19:24.888Z,102489.00
2018-09-25T00:21:59.246Z,102496.00
2018-09-25T00:24:33.291Z,102495.00
2018-09-25T00:27:07.453Z,102489.00
2018-09-25T00:29:41.588Z,102502.00
2018-09-25T00:32:15.885Z,102491.00
2018-09-25T00:34:50.083Z,102493.00
2018-09-25T00:37:24.449Z,102501.00
2018-09-25T00:39:58.563Z,102513.00
2018-09-25T00:42:32.888Z,102510.00
2018-09-25T00:45:07.120Z,102507.00
2018-09-25T00:47:41.391Z,102507.00
2018-09-25T00:50:15.703Z,102509.00
2018-09-25T00:52:50.003Z,102512.00
2018-09-25T00:55:24.308Z,102504.00
2018-09-25T00:57:58.552Z,102512.00
2018-09-25T01:00:32.716Z,102514.00
2018-09-25T01:03:06.867Z,102517.00
2018-09-25T01:05:41.245Z,102527.00
2018-09-25T01:08:15.471Z,102529.00
2018-09-25T01:10:49.876Z,102530.00
2018-09-25T01:13:24.113Z,102534.00
2018-09-25T01:15:58.421Z,102540.00
2018-09-25T01:21:58.304Z,102524.00
2018-09-25T01:24:32.608Z,102534.00
2018-09-25T01:27:06.840Z,102535.00
2018-09-25T01:29:41.012Z,102530.00
2018-09-25T01:32:15.033Z,102534.00
2018-09-25T01:34:49.337Z,102537.00
2018-09-25T01:37:23.675Z,102544.00
2018-09-25T01:39:58.088Z,102550.00
2018-09-25T01:42:32.374Z,102546.00
2018-09-25T01:45:06.578Z,102547.00
2018-09-25T01:47:40.807Z,102555.00
2018-09-25T01:50:15.120Z,102548.00
2018-09-25T01:52:49.394Z,102555.00
2018-09-25T01:55:23.623Z,102552.00
2018-09-25T01:57:57.727Z,102550.00
2018-09-25T02:00:32.037Z,102549.00
2018-09-25T02:03:06.481Z,102563.00
2018-09-25T02:05:40.905Z,102561.00
2018-09-25T02:08:15.315Z,102570.00
2018-09-25T02:10:49.559Z,102568.00
2018-09-25T02:13:23.816Z,102572.00
2018-09-25T02:15:58.000Z,102574.00
2018-09-25T02:18:32.184Z,102574.00
2018-09-25T02:21:06.520Z,102581.00
2018-09-25T02:23:40.833Z,102581.00
2018-09-25T02:26:15.233Z,102580.00
2018-09-25T02:28:49.544Z,102585.00
2018-09-25T02:31:23.934Z,102585.00
2018-09-25T02:33:58.161Z,102586.00
2018-09-25T02:36:32.532Z,102584.00
2018-09-25T02:39:06.756Z,102587.00
2018-09-25T02:41:40.960Z,102590.00
2018-09-25T02:44:15.203Z,102593.00
2018-09-25T02:46:49.496Z,102605.00
2018-09-25T02:49:23.787Z,102598.00
2018-09-25T02:51:58.100Z,102599.00
2018-09-25T02:54:32.455Z,102611.00
2018-09-25T02:57:06.753Z,102599.00
2018-09-25T02:59:40.907Z,102621.00
2018-09-25T03:02:15.091Z,102611.00
2018-09-25T03:04:49.431Z,102607.00
2018-09-25T03:07:23.900Z,102612.00
2018-09-25T03:09:58.308Z,102615.00
2018-09-25T03:12:32.501Z,102626.00
2018-09-25T03:15:06.933Z,102627.00
2018-09-25T03:17:41.153Z,102622.00
2018-09-25T03:20:15.411Z,102616.00
2018-09-25T03:22:49.784Z,102633.00
2018-09-25T03:25:24.134Z,102627.00
2018-09-25T03:27:58.458Z,102631.00
2018-09-25T03:30:32.696Z,102634.00
2018-09-25T03:33:06.944Z,102640.00
2018-09-25T03:35:41.116Z,102633.00
2018-09-25T03:38:15.309Z,102635.00
2018-09-25T03:40:49.696Z,102647.00
2018-09-25T03:43:23.948Z,102644.00
2018-09-25T03:45:58.168Z,102653.00
2018-09-25T03:48:32.513Z,102654.00
2018-09-25T03:51:06.665Z,102659.00
2018-09-25T03:53:41.049Z,102659.00
2018-09-25T03:56:15.459Z,102656.00
2018-09-25T03:58:49.712Z,102658.00
2018-09-25T04:01:23.881Z,102664.00
2018-09-25T04:03:58.099Z,102672.00
2018-09-25T04:06:32.315Z,102680.00
2018-09-25T04:09:06.614Z,102686.00
2018-09-25T04:11:40.815Z,102688.00
2018-09-25T04:14:15.029Z,102694.00
2018-09-25T04:16:49.492Z,102689.00
2018-09-25T04:19:23.844Z,102704.00
2018-09-25T04:21:58.074Z,102705.00
2018-09-25T04:24:32.433Z,102714.00
2018-09-25T04:27:06.704Z,102717.00
2018-09-25T04:29:40.832Z,102709.00
2018-09-25T04:32:15.058Z,102717.00
2018-09-25T04:34:49.259Z,102727.00
2018-09-25T04:37:23.489Z,102732.00
2018-09-25T04:39:57.733Z,102738.00
2018-09-25T04:42:31.860Z,102737.00
2018-09-25T04:45:07.353Z,102739.00
2018-09-25T04:47:41.564Z,102740.00
2018-09-25T04:50:15.883Z,102739.00
2018-09-25T04:52:50.227Z,102745.00
2018-09-25T04:55:24.500Z,102751.00
2018-09-25T04:57:58.862Z,102750.00
2018-09-25T05:00:33.136Z,102751.00
2018-09-25T05:03:07.371Z,102753.00
2018-09-25T05:05:41.557Z,102758.00
2018-09-25T05:08:15.905Z,102753.00
2018-09-25T05:10:50.200Z,102759.00
2018-09-25T05:13:24.456Z,102779.00
2018-09-25T05:15:58.849Z,102772.00
2018-09-25T05:18:55.939Z,102770.00
2018-09-25T05:21:30.434Z,102769.00
2018-09-25T05:24:04.705Z,102771.00
2018-09-25T05:26:38.986Z,102774.00
2018-09-25T05:29:13.345Z,102770.00
2018-09-25T05:31:47.650Z,102784.00
2018-09-25T05:34:22.015Z,102786.00
2018-09-25T05:36:56.154Z,102794.00
2018-09-25T05:39:30.454Z,102781.00
2018-09-25T05:42:04.619Z,102785.00
2018-09-25T05:44:38.862Z,102790.00
2018-09-25T05:47:13.081Z,102774.00
2018-09-25T05:49:47.263Z,102793.00
2018-09-25T05:52:21.725Z,102794.00
2018-09-25T05:54:56.127Z,102798.00
2018-09-25T05:57:30.319Z,102803.00
2018-09-25T06:00:04.685Z,102810.00
2018-09-25T06:02:38.974Z,102812.00
2018-09-25T06:05:13.277Z,102812.00
2018-09-25T06:07:47.597Z,102816.00
2018-09-25T06:10:21.820Z,102822.00
2018-09-25T06:12:56.056Z,102814.00
2018-09-25T06:15:30.379Z,102824.00
2018-09-25T06:18:04.613Z,102839.00
2018-09-25T06:20:38.791Z,102827.00
2018-09-25T06:23:13.010Z,102834.00
2018-09-25T06:25:47.243Z,102833.00
2018-09-25T06:28:21.634Z,102836.00
2018-09-25T06:30:55.915Z,102836.00
2018-09-25T06:33:30.306Z,102844.00
2018-09-25T06:36:04.724Z,102837.00
2018-09-25T06:38:38.919Z,102851.00
2018-09-25T06:41:13.121Z,102851.00
2018-09-25T06:43:47.321Z,102863.00
2018-09-25T06:46:21.662Z,102859.00
2018-09-25T06:48:55.928Z,102861.00
2018-09-25T06:51:30.136Z,102871.00
2018-09-25T06:54:04.407Z,102873.00
2018-09-25T06:56:38.625Z,102872.00
2018-09-25T06:59:12.768Z,102874.00
2018-09-25T07:01:46.859Z,102874.00
2018-09-25T07:04:21.095Z,102879.00
2018-09-25T07:06:55.468Z,102884.00
2018-09-25T07:09:29.687Z,102889.00
2018-09-25T07:12:04.073Z,102897.00
2018-09-25T07:14:38.323Z,102901.00
2018-09-25T07:17:12.672Z,102906.00
2018-09-25T07:19:46.978Z,102908.00
2018-09-25T07:22:21.296Z,102922.00
2018-09-25T07:24:55.776Z,102921.00
2018-09-25T07:27:29.959Z,102914.00
2018-09-25T07:30:04.175Z,102928.00
2018-09-25T07:32:38.444Z,102928.00
2018-09-25T07:35:12.694Z,102924.00
2018-09-25T07:37:47.090Z,102931.00
2018-09-25T07:40:21.399Z,102934.00
2018-09-25T07:42:55.673Z,102945.00
2018-09-25T07:45:29.948Z,102936.00
2018-09-25T07:48:04.361Z,102932.00
2018-09-25T07:50:38.344Z,102945.00
2018-09-25T07:53:12.636Z,102936.00
2018-09-25T07:55:46.876Z,102942.00
2018-09-25T07:58:21.111Z,102942.00
2018-09-25T08:00:55.295Z,102935.00
2018-09-25T08:03:29.519Z,102945.00
2018-09-25T08:06:03.705Z,102953.00
2018-09-25T08:08:37.978Z,102958.00
2018-09-25T08:11:12.433Z,102954.00
2018-09-25T08:13:46.590Z,102960.00
2018-09-25T08:16:20.784Z,102965.00
2018-09-25T08:18:55.079Z,102962.00
2018-09-25T08:21:29.292Z,102963.00
2018-09-25T08:24:03.596Z,102968.00
2018-09-25T08:26:37.763Z,102966.00
2018-09-25T08:29:12.115Z,102971.00
2018-09-25T08:31:46.473Z,102966.00
2018-09-25T08:34:20.729Z,102973.00
2018-09-25T08:36:55.144Z,102974.00
2018-09-25T08:39:29.478Z,102973.00
2018-09-25T08:42:03.823Z,102979.00
2018-09-25T08:44:38.093Z,102973.00
2018-09-25T08:47:12.789Z,102987.00
2018-09-25T08:49:46.979Z,102996.00
2018-09-25T08:52:21.222Z,102995.00
2018-09-25T08:54:55.708Z,102999.00
2018-09-25T08:57:30.037Z,103001.00
2018-09-25T09:00:04.223Z,102999.00
2018-09-25T09:02:38.363Z,103002.00
2018-09-25T09:05:12.642Z,102999.00
2018-09-25T09:07:46.927Z,102997.00
2018-09-25T09:10:21.096Z,103009.00
2018-09-25T09:12:55.176Z,103006.00
2018-09-25T09:15:29.328Z,103002.00
2018-09-25T09:18:03.769Z,103009.00
2018-09-25T09:20:37.951Z,103023.00
2018-09-25T09:23:12.427Z,103022.00
2018-09-25T09:25:46.715Z,103022.00
2018-09-25T09:28:20.917Z,103019.00
2018-09-25T09:30:55.062Z,103020.00
2018-09-25T09:33:29.397Z,103024.00
2018-09-25T09:36:03.717Z,103025.00
2018-09-25T09:38:37.992Z,103028.00
2018-09-25T09:41:12.258Z,103023.00
2018-09-25T09:43:46.465Z,103023.00
2018-09-25T09:46:20.711Z,103027.00
2018-09-25T09:48:54.984Z,103018.00
2018-09-25T09:51:29.208Z,103037.00
2018-09-25T09:54:03.488Z,103028.00
2018-09-25T09:56:37.870Z,103037.00
2018-09-25T09:59:12.444Z,103034.00
2018-09-25T10:01:46.604Z,103027.00
2018-09-25T10:04:20.877Z,103034.00
2018-09-25T10:06:55.199Z,103042.00
2018-09-25T10:09:29.171Z,103033.00
2018-09-25T10:12:03.519Z,103029.00
2018-09-25T10:14:37.873Z,103034.00
2018-09-25T10:17:12.581Z,103031.00
2018-09-25T10:19:46.889Z,103032.00
2018-09-25T10:22:21.098Z,103027.00
2018-09-25T10:24:55.240Z,103022.00
2018-09-25T10:27:29.468Z,103035.00
2018-09-25T10:30:03.603Z,103039.00
2018-09-25T10:32:37.774Z,103028.00
2018-09-25T10:35:12.094Z,103033.00
2018-09-25T10:37:46.521Z,103035.00
2018-09-25T10:40:20.745Z,103040.00
2018-09-25T10:42:55.113Z,103038.00
2018-09-25T10:45:29.550Z,103040.00
2018-09-25T10:48:03.771Z,103031.00
2018-09-25T10:50:38.171Z,103044.00
2018-09-25T10:53:12.555Z,103050.00
2018-09-25T10:55:46.919Z,103046.00
2018-09-25T10:58:21.163Z,103049.00
2018-09-25T11:00:55.477Z,103041.00
2018-09-25T11:03:29.641Z,103047.00
2018-09-25T11:06:03.800Z,103048.00
2018-09-25T11:08:38.241Z,103047.00
2018-09-25T11:11:12.538Z,103047.00
2018-09-25T11:13:46.785Z,103058.00
2018-09-25T11:16:21.145Z,103052.00
2018-09-25T11:18:55.443Z,103056.00
2018-09-25T11:21:29.683Z,103069.00
2018-09-25T11:24:04.006Z,103053.00
2018-09-25T11:26:38.138Z,103061.00
2018-09-25T11:29:12.626Z,103063.00
2018-09-25T11:31:46.856Z,103065.00
2018-09-25T11:34:21.032Z,103063.00
2018-09-25T11:36:55.345Z,103069.00
2018-09-25T11:39:29.598Z,103073.00
2018-09-25T11:42:03.637Z,103082.00
2018-09-25T11:44:37.865Z,103074.00
2018-09-25T11:47:12.189Z,103084.00
2018-09-25T11:49:46.558Z,103068.00
2018-09-25T11:52:20.789Z,103073.00
2018-09-25T11:54:55.068Z,103067.00
2018-09-25T11:57:29.365Z,103073.00
2018-09-25T12:00:03.548Z,103069.00
2018-09-25T12:02:37.879Z,103065.00
2018-09-25T12:05:12.097Z,103078.00
2018-09-25T12:07:46.470Z,103086.00
2018-09-25T12:10:20.762Z,103079.00
2018-09-25T12:12:55.155Z,103074.00
2018-09-25T12:15:29.433Z,103080.00
2018-09-25T12:18:03.755Z,103082.00
2018-09-25T12:20:38.055Z,103077.00
2018-09-25T12:23:12.644Z,103083.00
2018-09-25T12:25:46.829Z,103094.00
2018-09-25T12:28:21.089Z,103081.00
2018-09-25T12:30:55.339Z,103067.00
2018-09-25T12:33:29.564Z,103086.00
2018-09-25T12:36:03.917Z,103087.00
2018-09-25T12:38:38.243Z,103085.00
2018-09-25T12:41:12.572Z,103077.00
2018-09-25T12:43:46.695Z,103088.00
2018-09-25T12:46:21.079Z,103089.00
2018-09-25T12:48:55.216Z,103089.00
2018-09-25T12:51:29.590Z,103089.00
2018-09-25T12:54:03.981Z,103092.00
2018-09-25T12:56:38.016Z,103087.00
2018-09-25T12:59:12.256Z,103081.00
2018-09-25T13:01:46.533Z,103092.00
2018-09-25T13:04:20.798Z,103091.00
2018-09-25T13:06:54.926Z,103091.00
2018-09-25T13:09:29.103Z,103092.00
2018-09-25T13:12:03.444Z,103104.00
2018-09-25T13:14:37.664Z,103101.00
2018-09-25T13:17:11.779Z,103100.00
2018-09-25T13:19:46.357Z,103101.00
2018-09-25T13:22:20.877Z,103095.00
2018-09-25T13:24:55.296Z,103087.00
2018-09-25T13:27:29.576Z,103086.00
2018-09-25T13:30:03.866Z,103084.00
2018-09-25T13:32:38.129Z,103080.00
2018-09-25T13:35:12.518Z,103083.00
2018-09-25T13:37:46.873Z,103088.00
2018-09-25T13:40:21.192Z,103075.00
2018-09-25T13:42:55.548Z,103086.00
2018-09-25T13:45:29.759Z,103083.00
2018-09-25T13:48:04.051Z,103085.00
2018-09-25T13:50:38.349Z,103083.00
2018-09-25T13:53:13.102Z,103076.00
2018-09-25T13:55:47.554Z,103074.00
2018-09-25T13:58:21.928Z,103081.00
2018-09-25T14:00:56.154Z,103080.00
2018-09-25T14:03:30.417Z,103076.00
2018-09-25T14:06:04.598Z,103074.00
2018-09-25T14:08:38.927Z,103068.00
2018-09-25T14:11:13.322Z,103068.00
2018-09-25T14:13:47.658Z,103065.00
2018-09-25T14:16:22.619Z,103063.00
2018-09-25T14:18:56.808Z,103067.00
2018-09-25T14:21:31.225Z,103057.00
2018-09-25T14:24:05.391Z,103052.00
2018-09-25T14:26:39.612Z,103054.00
2018-09-25T14:29:13.771Z,103054.00
2018-09-25T14:31:47.968Z,103053.00
2018-09-25T14:34:22.110Z,103053.00
2018-09-25T14:36:56.252Z,103050.00
2018-09-25T14:39:30.430Z,103054.00
2018-09-25T14:42:04.618Z,103051.00
2018-09-25T14:44:38.863Z,103059.00
2018-09-25T14:47:13.169Z,103060.00
2018-09-25T14:49:47.165Z,103062.00
2018-09-25T14:52:21.482Z,103073.00
2018-09-25T14:54:55.656Z,103072.00
2018-09-25T14:57:30.031Z,103063.00
2018-09-25T15:00:04.299Z,103045.00
2018-09-25T15:02:38.524Z,103051.00
2018-09-25T15:05:12.708Z,103060.00
2018-09-25T15:07:47.086Z,103055.00
2018-09-25T15:10:21.543Z,103056.00
2018-09-25T15:12:56.069Z,103060.00
2018-09-25T15:15:30.513Z,103065.00
2018-09-25T15:18:04.726Z,103052.00
2018-09-25T15:20:38.783Z,103056.00
2018-09-25T15:23:13.132Z,103060.00
2018-09-25T15:25:47.373Z,103060.00
2018-09-25T15:28:21.739Z,103056.00
2018-09-25T15:30:56.217Z,103062.00
2018-09-25T15:33:30.387Z,103063.00
2018-09-25T15:36:04.760Z,103069.00
2018-09-25T15:38:39.190Z,103072.00
2018-09-25T15:41:13.749Z,103065.00
2018-09-25T15:43:47.984Z,103071.00
2018-09-25T15:46:22.314Z,103067.00
2018-09-25T15:48:56.568Z,103070.00
2018-09-25T15:51:30.801Z,103066.00
2018-09-25T15:54:05.067Z,103074.00
2018-09-25T15:56:39.382Z,103082.00
2018-09-25T15:59:13.631Z,103074.00
2018-09-25T16:01:47.927Z,103084.00
2018-09-25T16:04:22.156Z,103083.00
2018-09-25T16:06:56.567Z,103090.00
2018-09-25T16:09:30.863Z,103094.00
2018-09-25T16:12:05.537Z,103095.00
2018-09-25T16:14:39.910Z,103097.00
2018-09-25T16:17:14.333Z,103091.00
2018-09-25T16:19:49.144Z,103104.00
2018-09-25T16:22:23.516Z,103099.00
2018-09-25T16:24:57.725Z,103096.00
2018-09-25T16:27:32.128Z,103091.00
2018-09-25T16:30:06.401Z,103087.00
2018-09-25T16:32:40.799Z,103091.00
2018-09-25T16:35:14.960Z,103089.00
2018-09-25T16:37:49.333Z,103089.00
2018-09-25T16:40:23.545Z,103080.00
2018-09-25T16:42:58.005Z,103086.00
2018-09-25T16:45:32.331Z,103088.00
2018-09-25T16:48:06.624Z,103089.00
2018-09-25T16:50:40.700Z,103085.00
2018-09-25T16:53:15.013Z,103080.00
2018-09-25T16:55:49.181Z,103084.00
2018-09-25T16:58:23.426Z,103084.00
2018-09-25T17:00:57.780Z,103101.00
2018-09-25T17:03:31.928Z,103107.00
2018-09-25T17:06:06.235Z,103103.00
2018-09-25T17:08:40.501Z,103114.00
2018-09-25T17:11:14.814Z,103119.00
2018-09-25T17:13:49.145Z,103120.00
2018-09-25T17:16:23.327Z,103119.00
2018-09-25T17:18:57.424Z,103125.00
2018-09-25T17:21:31.724Z,103119.00
2018-09-25T17:24:06.128Z,103125.00
2018-09-25T17:26:40.533Z,103115.00
2018-09-25T17:29:14.611Z,103116.00
2018-09-25T17:31:48.856Z,103114.00
2018-09-25T17:34:23.269Z,103114.00
2018-09-25T17:36:57.502Z,103115.00
2018-09-25T17:39:31.695Z,103121.00
2018-09-25T17:42:05.876Z,103135.00
2018-09-25T17:44:40.077Z,103131.00
2018-09-25T17:47:14.467Z,103128.00
2018-09-25T17:49:48.669Z,103115.00
2018-09-25T17:52:22.933Z,103126.00
2018-09-25T17:54:57.179Z,103132.00
2018-09-25T17:57:31.415Z,103133.00
2018-09-25T18:00:05.664Z,103133.00
2018-09-25T18:02:39.991Z,103136.00
2018-09-25T18:05:14.300Z,103138.00
2018-09-25T18:07:48.701Z,103136.00
2018-09-25T18:10:23.045Z,103136.00
2018-09-25T18:12:57.189Z,103135.00
2018-09-25T18:15:31.517Z,103134.00
2018-09-25T18:18:05.925Z,103130.00
2018-09-25T18:20:39.960Z,103132.00
2018-09-25T18:23:14.060Z,103134.00
2018-09-25T18:25:48.364Z,103127.00
2018-09-25T18:28:22.841Z,103127.00
2018-09-25T18:30:57.027Z,103128.00
2018-09-25T18:33:31.420Z,103122.00
2018-09-25T18:36:05.688Z,103130.00
2018-09-25T18:38:39.815Z,103132.00
2018-09-25T18:41:14.131Z,103122.00
2018-09-25T18:43:48.488Z,103127.00
2018-09-25T18:46:22.775Z,103121.00
2018-09-25T18:48:57.153Z,103122.00
2018-09-25T18:51:31.254Z,103118.00
2018-09-25T18:54:05.538Z,103123.00
2018-09-25T18:56:39.620Z,103118.00
2018-09-25T18:59:13.957Z,103126.00
2018-09-25T19:01:48.291Z,103128.00
2018-09-25T19:04:22.644Z,103129.00
2018-09-25T19:06:56.970Z,103140.00
2018-09-25T19:09:31.280Z,103143.00
2018-09-25T19:12:05.563Z,103144.00
2018-09-25T19:14:40.006Z,103135.00
2018-09-25T19:17:14.405Z,103132.00
2018-09-25T19:19:48.627Z,103123.00
2018-09-25T19:22:23.034Z,103128.00
2018-09-25T19:24:57.304Z,103139.00
2018-09-25T19:27:31.743Z,103133.00
2018-09-25T19:30:06.065Z,103137.00
2018-09-25T19:32:40.444Z,103135.00
2018-09-25T19:35:14.703Z,103140.00
2018-09-25T19:37:48.994Z,103136.00
2018-09-25T19:40:23.397Z,103136.00
2018-09-25T19:42:57.578Z,103139.00
2018-09-25T19:45:31.899Z,103141.00
2018-09-25T19:48:06.223Z,103138.00
2018-09-25T19:50:40.445Z,103137.00
2018-09-25T19:53:14.725Z,103143.00
2018-09-25T19:55:49.007Z,103146.00
2018-09-25T19:58:23.332Z,103144.00
2018-09-25T20:00:57.616Z,103146.00
2018-09-25T20:03:31.835Z,103133.00
2018-09-25T20:06:06.020Z,103142.00
2018-09-25T20:08:40.204Z,103139.00
2018-09-25T20:11:14.372Z,103136.00
2018-09-25T20:13:48.588Z,103152.00
2018-09-25T20:16:22.629Z,103139.00
2018-09-25T20:18:56.955Z,103148.00
2018-09-25T20:21:31.187Z,103141.00
2018-09-25T20:24:05.479Z,103153.00
2018-09-25T20:26:39.756Z,103146.00
2018-09-25T20:29:14.259Z,103151.00
2018-09-25T20:31:48.407Z,103154.00
2018-09-25T20:34:22.620Z,103159.00
2018-09-25T20:36:56.996Z,103161.00
2018-09-25T20:39:31.297Z,103166.00
2018-09-25T20:42:05.644Z,103161.00
2018-09-25T20:44:39.803Z,103168.00
2018-09-25T20:47:14.065Z,103171.00
2018-09-25T20:49:48.309Z,103172.00
2018-09-25T20:52:22.533Z,103178.00
2018-09-25T20:54:56.794Z,103174.00
2018-09-25T20:57:30.993Z,103175.00
2018-09-25T21:00:05.256Z,103183.00
2018-09-25T21:02:39.426Z,103189.00
2018-09-25T21:05:13.606Z,103179.00
2018-09-25T21:07:47.776Z,103175.00
2018-09-25T21:10:22.070Z,103166.00
2018-09-25T21:12:56.370Z,103165.00
2018-09-25T21:15:30.556Z,103153.00
2018-09-25T21:18:04.777Z,103162.00
2018-09-25T21:20:39.189Z,103163.00
2018-09-25T21:23:13.677Z,103167.00
2018-09-25T21:25:48.005Z,103159.00
2018-09-25T21:28:22.485Z,103153.00
2018-09-25T21:30:56.771Z,103156.00
2018-09-25T21:33:31.065Z,103165.00
2018-09-25T21:36:05.084Z,103143.00
2018-09-25T21:38:39.381Z,103159.00
2018-09-25T21:41:13.495Z,103156.00
2018-09-25T21:43:47.695Z,103161.00
2018-09-25T21:46:22.133Z,103153.00
2018-09-25T21:48:56.518Z,103151.00
2018-09-25T21:51:31.038Z,103146.00
2018-09-25T21:54:04.899Z,103136.00
2018-09-25T21:56:39.238Z,103139.00
2018-09-25T21:59:13.449Z,103142.00
2018-09-25T22:01:47.672Z,103147.00
2018-09-25T22:04:21.843Z,103136.00
2018-09-25T22:06:56.037Z,103121.00
2018-09-25T22:09:30.229Z,103126.00
2018-09-25T22:12:04.479Z,103136.00
2018-09-25T22:14:38.659Z,103137.00
2018-09-25T22:17:12.986Z,103127.00
2018-09-25T22:19:47.358Z,103119.00
2018-09-25T22:22:21.599Z,103126.00
2018-09-25T22:24:56.023Z,103122.00
2018-09-25T22:27:30.308Z,103127.00
2018-09-25T22:30:04.509Z,103125.00
2018-09-25T22:32:38.918Z,103109.00
2018-09-25T22:35:13.211Z,103107.00
2018-09-25T22:37:47.391Z,103118.00
2018-09-25T22:40:21.759Z,103124.00
2018-09-25T22:42:56.118Z,103126.00
2018-09-25T22:45:30.497Z,103123.00
2018-09-25T22:48:04.621Z,103115.00
2018-09-25T22:50:38.957Z,103102.00
2018-09-25T22:53:13.124Z,103100.00
2018-09-25T22:55:47.413Z,103103.00
2018-09-25T22:58:21.660Z,103086.00
2018-09-25T23:00:55.943Z,103080.00
2018-09-25T23:03:30.044Z,103079.00
2018-09-25T23:06:04.429Z,103085.00
2018-09-25T23:08:38.633Z,103080.00
2018-09-25T23:11:12.896Z,103078.00
2018-09-25T23:13:47.139Z,103084.00
2018-09-25T23:16:21.296Z,103087.00
2018-09-25T23:18:55.506Z,103074.00
2018-09-25T23:21:29.922Z,103082.00
2018-09-25T23:24:04.146Z,103088.00
2018-09-25T23:26:38.423Z,103074.00
2018-09-25T23:29:12.799Z,103089.00
2018-09-25T23:31:47.119Z,103084.00
2018-09-25T23:34:21.429Z,103090.00
2018-09-25T23:36:55.651Z,103085.00
2018-09-25T23:39:28.638Z,103095.00
2018-09-25T23:42:03.756Z,103103.00
2018-09-25T23:44:45.044Z,103103.00
2018-09-25T23:47:47.548Z,103110.00
2018-09-25T23:50:20.724Z,103098.00
2018-09-25T23:52:58.028Z,103102.00
2018-09-25T23:55:31.184Z,103096.00
2018-09-25T23:58:07.523Z,103095.00
